createdAt,value
2022-10-06T00:01:19.714Z,7.20
2022-10-06T00:03:52.656Z,6.57
2022-10-06T00:06:26.680Z,6.30
2022-10-06T00:09:00.365Z,5.93
2022-10-06T00:11:29.920Z,6.00
2022-10-06T00:13:59.143Z,6.10
2022-10-06T00:16:33.506Z,6.47
2022-10-06T00:19:05.991Z,5.70
2022-10-06T00:21:39.277Z,6.20
2022-10-06T00:24:06.588Z,6.13
2022-10-06T00:26:42.212Z,5.80
2022-10-06T00:29:16.339Z,5.77
2022-10-06T00:31:45.045Z,5.37
2022-10-06T00:34:14.784Z,6.00
2022-10-06T00:36:42.032Z,5.80
2022-10-06T00:39:13.794Z,5.70
2022-10-06T00:41:45.601Z,6.23
2022-10-06T00:44:18.535Z,6.07
2022-10-06T00:47:06.267Z,5.40
2022-10-06T00:49:39.848Z,5.20
2022-10-06T00:52:25.198Z,5.83
2022-10-06T00:54:53.371Z,5.17
2022-10-06T00:57:39.055Z,6.13
2022-10-06T01:00:20.385Z,5.10
2022-10-06T01:03:03.266Z,5.23
2022-10-06T01:05:53.754Z,5.00
2022-10-06T01:08:26.349Z,4.90
2022-10-06T01:10:58.088Z,4.80
2022-10-06T01:13:32.811Z,4.93
2022-10-06T01:16:14.705Z,4.80
2022-10-06T01:18:50.009Z,5.27
2022-10-06T01:21:37.164Z,5.30
2022-10-06T01:24:17.517Z,5.40
2022-10-06T01:26:53.784Z,5.23
2022-10-06T01:29:44.195Z,5.00
2022-10-06T01:32:24.136Z,4.90
2022-10-06T01:34:59.358Z,5.67
2022-10-06T01:37:26.637Z,5.13
2022-10-06T01:40:00.008Z,5.53
2022-10-06T01:42:45.911Z,4.90
2022-10-06T01:45:15.719Z,5.10
2022-10-06T01:47:45.975Z,4.77
2022-10-06T01:50:19.130Z,5.40
2022-10-06T01:52:57.990Z,5.17
2022-10-06T01:55:28.550Z,5.77
2022-10-06T01:58:06.424Z,5.07
2022-10-06T02:00:41.431Z,5.00
2022-10-06T02:03:18.615Z,5.83
2022-10-06T02:05:51.206Z,5.10
2022-10-06T02:08:28.212Z,4.87
2022-10-06T02:11:04.269Z,5.53
2022-10-06T02:13:37.613Z,5.10
2022-10-06T02:16:10.154Z,5.03
2022-10-06T02:18:48.606Z,4.33
2022-10-06T02:21:25.181Z,4.27
2022-10-06T02:23:52.328Z,4.20
2022-10-06T02:26:21.010Z,4.43
2022-10-06T02:28:52.414Z,5.27
2022-10-06T02:31:34.148Z,5.33
2022-10-06T02:34:13.340Z,5.10
2022-10-06T02:36:40.543Z,5.40
2022-10-06T02:39:10.156Z,5.50
2022-10-06T02:41:40.315Z,4.97
2022-10-06T02:44:20.988Z,5.73
2022-10-06T02:46:52.933Z,5.77
2022-10-06T02:49:25.202Z,6.10
2022-10-06T02:51:56.517Z,5.80
2022-10-06T02:54:23.699Z,5.60
2022-10-06T02:56:54.247Z,5.20
2022-10-06T02:59:24.305Z,5.30
2022-10-06T03:02:03.355Z,5.20
2022-10-06T03:04:45.427Z,5.40
2022-10-06T03:07:17.913Z,5.23
2022-10-06T03:09:49.370Z,5.93
2022-10-06T03:12:20.787Z,5.83
2022-10-06T03:14:58.205Z,5.87
2022-10-06T03:17:25.462Z,6.07
2022-10-06T03:20:07.010Z,5.90
2022-10-06T03:22:37.065Z,5.60
2022-10-06T03:25:04.359Z,5.97
2022-10-06T03:27:33.237Z,6.00
2022-10-06T03:30:03.760Z,6.70
2022-10-06T03:32:33.870Z,7.03
2022-10-06T03:35:01.102Z,6.97
2022-10-06T03:37:31.307Z,7.00
2022-10-06T03:40:06.088Z,7.47
2022-10-06T03:42:46.550Z,7.17
2022-10-06T03:45:21.193Z,7.63
2022-10-06T03:47:52.474Z,7.00
2022-10-06T03:50:26.228Z,6.80
2022-10-06T03:52:55.800Z,6.77
2022-10-06T03:55:27.151Z,7.80
2022-10-06T03:58:00.546Z,8.57
2022-10-06T04:00:38.413Z,13.77
2022-10-06T04:03:24.749Z,14.03
2022-10-06T04:06:12.984Z,14.00
2022-10-06T04:08:54.367Z,13.73
2022-10-06T04:11:34.585Z,13.87
2022-10-06T04:14:10.275Z,13.20
2022-10-06T04:16:51.129Z,10.83
2022-10-06T04:19:26.755Z,10.10
2022-10-06T04:22:06.680Z,10.30
2022-10-06T04:24:33.881Z,10.33
2022-10-06T04:27:25.731Z,10.47
2022-10-06T04:30:00.892Z,11.70
2022-10-06T04:32:38.844Z,10.97
2022-10-06T04:35:07.887Z,10.47
2022-10-06T04:37:35.015Z,10.50
2022-10-06T04:40:05.088Z,10.93
2022-10-06T04:42:36.760Z,11.03
2022-10-06T04:45:08.938Z,11.30
2022-10-06T04:47:42.420Z,10.30
2022-10-06T04:50:16.019Z,10.50
2022-10-06T04:52:53.716Z,9.77
2022-10-06T04:55:27.930Z,11.00
2022-10-06T04:58:05.219Z,9.97
2022-10-06T05:00:37.729Z,10.67
2022-10-06T05:03:23.209Z,10.20
2022-10-06T05:05:50.429Z,9.33
2022-10-06T05:08:29.702Z,9.80
2022-10-06T05:11:06.133Z,9.90
2022-10-06T05:13:45.468Z,12.07
2022-10-06T05:16:20.397Z,11.40
2022-10-06T05:18:52.206Z,12.30
2022-10-06T05:21:31.214Z,12.67
2022-10-06T05:24:08.373Z,12.53
2022-10-06T05:27:01.875Z,13.43
2022-10-06T05:29:40.196Z,14.30
2022-10-06T05:32:17.132Z,17.30
2022-10-06T05:34:49.725Z,18.37
2022-10-06T05:37:25.519Z,18.20
2022-10-06T05:40:02.691Z,17.07
2022-10-06T05:42:39.595Z,16.80
2022-10-06T05:45:28.651Z,16.73
2022-10-06T05:48:02.809Z,15.60
2022-10-06T05:50:29.955Z,13.33
2022-10-06T05:53:06.076Z,11.20
2022-10-06T05:55:42.524Z,8.77
2022-10-06T05:58:16.463Z,8.80
2022-10-06T06:00:57.655Z,8.47
2022-10-06T06:03:24.557Z,8.10
2022-10-06T06:05:51.331Z,8.27
2022-10-06T06:08:18.106Z,7.63
2022-10-06T06:10:44.853Z,8.53
2022-10-06T06:13:11.612Z,8.70
2022-10-06T06:15:56.967Z,7.77
2022-10-06T06:18:23.749Z,9.23
2022-10-06T06:21:01.680Z,8.10
2022-10-06T06:23:36.935Z,6.90
2022-10-06T06:26:09.615Z,6.17
2022-10-06T06:28:37.272Z,4.87
2022-10-06T06:31:08.607Z,3.60
2022-10-06T06:33:39.652Z,2.40
2022-10-06T06:36:27.984Z,2.57
2022-10-06T06:38:57.545Z,2.07
2022-10-06T06:41:33.387Z,2.87
2022-10-06T06:44:00.325Z,2.30
2022-10-06T06:46:31.982Z,2.50
2022-10-06T06:49:04.160Z,2.30
2022-10-06T06:51:33.203Z,2.30
2022-10-06T06:54:02.404Z,2.60
2022-10-06T06:56:35.033Z,2.33
2022-10-06T06:59:04.235Z,2.85
2022-10-06T07:01:31.128Z,2.60
2022-10-06T07:04:01.224Z,2.70
2022-10-06T07:06:29.718Z,2.00
2022-10-06T07:09:00.623Z,1.97
2022-10-06T07:11:30.364Z,2.47
2022-10-06T07:14:01.425Z,2.10
2022-10-06T07:16:48.859Z,2.23
2022-10-06T07:19:36.009Z,2.35
2022-10-06T07:22:32.520Z,1.90
2022-10-06T07:25:07.216Z,1.65
2022-10-06T07:27:35.739Z,1.83
2022-10-06T07:30:06.319Z,2.00
2022-10-06T07:32:33.179Z,2.03
2022-10-06T07:35:00.749Z,1.70
2022-10-06T07:37:31.236Z,2.10
2022-10-06T07:39:58.035Z,2.22
2022-10-06T07:42:24.874Z,2.13
2022-10-06T07:45:10.149Z,2.20
2022-10-06T07:47:40.218Z,1.90
2022-10-06T07:50:08.307Z,1.50
2022-10-06T07:52:39.306Z,1.75
2022-10-06T07:55:06.770Z,1.40
2022-10-06T07:57:35.486Z,1.48
2022-10-06T08:00:05.550Z,1.17
2022-10-06T08:02:35.556Z,1.20
2022-10-06T08:05:04.036Z,1.05
2022-10-06T08:07:30.805Z,1.10
2022-10-06T08:09:59.189Z,0.82
2022-10-06T08:12:34.899Z,1.13
2022-10-06T08:15:06.952Z,1.70
2022-10-06T08:17:36.748Z,1.30
2022-10-06T08:20:10.429Z,1.30
2022-10-06T08:22:38.835Z,1.17
2022-10-06T08:25:07.647Z,0.98
2022-10-06T08:27:35.687Z,1.20
2022-10-06T08:30:07.258Z,1.08
2022-10-06T08:32:34.726Z,1.10
2022-10-06T08:35:01.986Z,1.10
2022-10-06T08:37:28.857Z,1.23
2022-10-06T08:39:56.575Z,1.35
2022-10-06T08:43:04.513Z,1.25
2022-10-06T08:45:38.639Z,1.23
2022-10-06T08:48:07.201Z,1.30
2022-10-06T08:50:51.357Z,1.23
2022-10-06T08:53:55.791Z,1.10
2022-10-06T08:56:31.860Z,1.40
2022-10-06T08:59:04.293Z,1.10
2022-10-06T09:01:51.356Z,1.48
2022-10-06T09:04:28.255Z,1.30
2022-10-06T09:07:11.361Z,1.30
2022-10-06T09:10:04.512Z,1.42
2022-10-06T09:12:42.792Z,1.20
2022-10-06T09:15:20.729Z,2.20
2022-10-06T09:17:55.553Z,1.20
2022-10-06T09:20:37.237Z,1.50
2022-10-06T09:23:06.782Z,0.98
2022-10-06T09:25:34.004Z,1.10
2022-10-06T09:28:03.260Z,1.05
2022-10-06T09:30:30.157Z,1.10
2022-10-06T09:33:02.923Z,1.30
2022-10-06T09:35:32.484Z,0.90
2022-10-06T09:38:08.782Z,1.20
2022-10-06T09:40:51.293Z,1.13
2022-10-06T09:43:29.429Z,1.17
2022-10-06T09:46:17.793Z,1.23
2022-10-06T09:48:44.676Z,0.93
2022-10-06T09:51:18.670Z,1.13
2022-10-06T09:54:10.528Z,1.17
2022-10-06T09:56:45.141Z,0.98
2022-10-06T09:59:41.346Z,1.10
2022-10-06T10:02:39.745Z,0.90
2022-10-06T10:05:20.100Z,1.52
2022-10-06T10:08:00.270Z,1.20
2022-10-06T10:10:27.099Z,1.20
2022-10-06T10:12:56.683Z,1.15
2022-10-06T10:15:25.519Z,1.13
2022-10-06T10:17:53.692Z,1.00
2022-10-06T10:20:35.116Z,1.27
2022-10-06T10:23:30.850Z,0.88
2022-10-06T10:26:14.077Z,1.60
2022-10-06T10:28:58.991Z,1.02
2022-10-06T10:31:49.993Z,0.98
2022-10-06T10:34:24.192Z,1.17
2022-10-06T10:37:10.255Z,0.77
2022-10-06T10:40:00.274Z,1.20
2022-10-06T10:42:37.668Z,0.95
2022-10-06T10:45:15.115Z,0.88
2022-10-06T10:47:45.137Z,1.20
2022-10-06T10:50:22.745Z,1.10
2022-10-06T10:52:52.344Z,1.17
2022-10-06T10:55:39.230Z,1.10
2022-10-06T10:58:20.195Z,1.13
2022-10-06T11:00:57.742Z,0.90
2022-10-06T11:03:24.595Z,1.15
2022-10-06T11:06:14.590Z,1.00
2022-10-06T11:09:03.024Z,1.30
2022-10-06T11:11:52.447Z,1.70
2022-10-06T11:14:53.206Z,0.77
2022-10-06T11:17:22.735Z,1.02
2022-10-06T11:20:13.043Z,1.00
2022-10-06T11:22:41.644Z,0.80
2022-10-06T11:25:19.704Z,1.02
2022-10-06T11:28:00.515Z,0.73
2022-10-06T11:30:28.799Z,0.90
2022-10-06T11:33:13.669Z,0.65
2022-10-06T11:35:43.752Z,0.82
2022-10-06T11:38:25.301Z,0.70
2022-10-06T11:41:09.835Z,0.98
2022-10-06T11:43:45.939Z,0.90
2022-10-06T11:46:31.205Z,1.00
2022-10-06T11:49:30.251Z,1.30
2022-10-06T11:52:24.108Z,1.05
2022-10-06T11:54:56.229Z,0.82
2022-10-06T11:57:29.358Z,0.70
2022-10-06T12:00:00.381Z,0.80
2022-10-06T12:02:30.437Z,0.80
2022-10-06T12:05:55.254Z,0.77
2022-10-06T12:08:00.481Z,1.05
2022-10-06T12:10:32.066Z,0.80
2022-10-06T12:13:13.894Z,0.80
2022-10-06T12:18:57.250Z,0.80
2022-10-06T12:21:51.765Z,0.75
2022-10-06T12:24:30.779Z,0.75
2022-10-06T12:27:20.709Z,0.95
2022-10-06T12:30:06.450Z,0.80
2022-10-06T12:32:54.361Z,0.82
2022-10-06T12:35:30.348Z,0.73
2022-10-06T12:38:05.427Z,1.15
2022-10-06T12:40:41.539Z,1.00
2022-10-06T12:43:23.185Z,0.93
2022-10-06T12:45:56.259Z,0.73
2022-10-06T12:48:26.861Z,1.02
2022-10-06T12:51:21.001Z,0.80
2022-10-06T12:53:53.794Z,0.90
2022-10-06T12:56:29.132Z,0.75
2022-10-06T12:58:56.289Z,0.80
2022-10-06T13:01:23.894Z,0.75
2022-10-06T13:03:52.586Z,0.90
2022-10-06T13:06:24.584Z,0.75
2022-10-06T13:09:13.621Z,1.00
2022-10-06T13:11:40.546Z,0.80
2022-10-06T13:14:10.671Z,0.88
2022-10-06T13:16:40.974Z,0.80
2022-10-06T13:19:28.174Z,0.60
2022-10-06T13:21:55.278Z,1.10
2022-10-06T13:24:27.111Z,0.77
2022-10-06T13:26:54.259Z,0.85
2022-10-06T13:29:24.575Z,0.90
2022-10-06T13:31:53.711Z,0.70
2022-10-06T13:34:34.937Z,0.73
2022-10-06T13:37:02.366Z,0.80
2022-10-06T13:39:32.369Z,1.00
2022-10-06T13:42:08.293Z,0.73
2022-10-06T13:44:35.109Z,0.70
2022-10-06T13:47:06.278Z,0.70
2022-10-06T13:49:43.122Z,0.80
2022-10-06T13:52:22.698Z,0.73
2022-10-06T13:54:57.891Z,0.80
2022-10-06T13:57:38.286Z,0.70
2022-10-06T14:00:25.334Z,0.90
2022-10-06T14:03:10.115Z,0.88
2022-10-06T14:05:39.438Z,0.90
2022-10-06T14:08:12.225Z,1.17
2022-10-06T14:10:46.354Z,0.80
2022-10-06T14:13:32.864Z,0.73
2022-10-06T14:16:07.615Z,1.10
2022-10-06T14:18:46.976Z,0.90
2022-10-06T14:21:38.307Z,0.98
2022-10-06T14:24:18.100Z,0.88
2022-10-06T14:26:55.687Z,0.93
2022-10-06T14:29:23.053Z,1.10
2022-10-06T14:31:50.557Z,0.70
2022-10-06T14:34:20.476Z,0.70
2022-10-06T14:36:53.507Z,0.82
2022-10-06T14:39:20.363Z,0.60
2022-10-06T14:41:47.655Z,0.82
2022-10-06T14:44:17.545Z,0.95
2022-10-06T14:46:48.705Z,0.60
2022-10-06T14:49:16.228Z,0.90
2022-10-06T14:51:44.455Z,0.93
2022-10-06T14:54:12.110Z,0.75
2022-10-06T14:56:40.412Z,0.90
2022-10-06T14:59:10.279Z,0.73
2022-10-06T15:01:40.202Z,0.90
2022-10-06T15:04:15.451Z,1.13
2022-10-06T15:07:01.321Z,1.00
2022-10-06T15:09:30.860Z,1.13
2022-10-06T15:11:58.483Z,1.10
2022-10-06T15:14:25.651Z,0.88
2022-10-06T15:16:54.155Z,1.20
2022-10-06T15:19:20.989Z,1.10
2022-10-06T15:21:48.061Z,1.10
2022-10-06T15:24:17.100Z,1.25
2022-10-06T15:27:03.303Z,0.98
2022-10-06T15:29:30.840Z,0.95
2022-10-06T15:31:58.749Z,1.10
2022-10-06T15:34:27.835Z,0.93
2022-10-06T15:36:56.463Z,0.90
2022-10-06T15:39:25.506Z,0.80
2022-10-06T15:41:52.626Z,1.10
2022-10-06T15:44:20.391Z,1.15
2022-10-06T15:46:52.561Z,0.80
2022-10-06T15:49:22.319Z,1.08
2022-10-06T15:52:02.792Z,0.98
2022-10-06T15:54:33.797Z,1.00
2022-10-06T15:57:02.685Z,0.82
2022-10-06T15:59:32.525Z,1.10
2022-10-06T16:02:05.060Z,1.00
2022-10-06T16:04:40.211Z,1.02
2022-10-06T16:07:09.002Z,0.77
2022-10-06T16:09:43.083Z,1.10
2022-10-06T16:12:12.602Z,1.10
2022-10-06T16:14:39.573Z,1.00
2022-10-06T16:17:07.814Z,0.98
2022-10-06T16:19:37.052Z,0.90
2022-10-06T16:22:05.735Z,0.90
2022-10-06T16:24:32.794Z,1.40
2022-10-06T16:27:00.212Z,1.20
2022-10-06T16:29:28.221Z,1.83
2022-10-06T16:31:56.366Z,1.80
2022-10-06T16:34:23.501Z,1.90
2022-10-06T16:36:50.478Z,2.20
2022-10-06T16:39:19.918Z,2.20
2022-10-06T16:41:47.229Z,1.60
2022-10-06T16:44:14.264Z,1.90
2022-10-06T16:46:41.214Z,1.60
2022-10-06T16:49:09.391Z,1.30
2022-10-06T16:51:38.889Z,1.50
2022-10-06T16:54:11.526Z,1.60
2022-10-06T16:56:44.223Z,1.70
2022-10-06T16:59:19.299Z,2.47
2022-10-06T17:01:47.549Z,4.00
2022-10-06T17:04:15.674Z,3.73
2022-10-06T17:06:48.543Z,3.53
2022-10-06T17:09:17.820Z,3.10
2022-10-06T17:11:53.610Z,4.63
2022-10-06T17:14:21.642Z,7.07
2022-10-06T17:16:51.202Z,7.80
2022-10-06T17:19:19.792Z,7.73
2022-10-06T17:21:50.500Z,6.27
2022-10-06T17:24:19.911Z,4.97
2022-10-06T17:26:48.803Z,4.90
2022-10-06T17:29:19.023Z,4.00
2022-10-06T17:31:47.328Z,4.00
2022-10-06T17:34:20.417Z,3.10
2022-10-06T17:36:49.954Z,2.93
2022-10-06T17:39:19.460Z,2.70
2022-10-06T17:41:47.413Z,2.80
2022-10-06T17:44:23.536Z,3.20
2022-10-06T17:46:53.535Z,3.80
2022-10-06T17:49:22.238Z,4.13
2022-10-06T17:51:50.525Z,4.93
2022-10-06T17:54:20.691Z,4.20
2022-10-06T17:56:49.581Z,4.37
2022-10-06T17:59:25.207Z,4.20
2022-10-06T18:01:56.296Z,4.30
2022-10-06T18:04:23.914Z,4.30
2022-10-06T18:06:53.220Z,4.20
2022-10-06T18:09:20.869Z,5.67
2022-10-06T18:11:55.947Z,6.20
2022-10-06T18:14:28.463Z,6.47
2022-10-06T18:17:00.834Z,6.03
2022-10-06T18:19:32.477Z,5.80
2022-10-06T18:22:10.597Z,5.97
2022-10-06T18:24:37.844Z,4.50
2022-10-06T18:27:06.405Z,3.83
2022-10-06T18:29:35.577Z,4.40
2022-10-06T18:37:37.142Z,5.27
2022-10-06T18:40:06.924Z,4.27
2022-10-06T18:42:34.196Z,4.60
2022-10-06T18:45:24.155Z,4.63
2022-10-06T18:48:09.625Z,5.13
2022-10-06T18:50:36.552Z,6.67
2022-10-06T18:53:04.287Z,6.57
2022-10-06T18:55:32.017Z,7.47
2022-10-06T18:57:58.832Z,7.03
2022-10-06T19:00:26.370Z,6.23
2022-10-06T19:02:55.435Z,6.63
2022-10-06T19:05:22.852Z,6.73
2022-10-06T19:07:51.740Z,6.97
2022-10-06T19:10:19.433Z,6.70
2022-10-06T19:12:46.727Z,6.93
2022-10-06T19:15:17.812Z,6.47
2022-10-06T19:17:46.991Z,6.67
2022-10-06T19:20:13.909Z,5.07
2022-10-06T19:22:40.683Z,5.00
2022-10-06T19:25:08.001Z,5.43
2022-10-06T19:27:36.142Z,5.53
2022-10-06T19:30:04.236Z,4.90
2022-10-06T19:32:34.438Z,5.47
2022-10-06T19:35:04.227Z,6.10
2022-10-06T19:37:34.386Z,5.87
2022-10-06T19:40:01.670Z,6.27
2022-10-06T19:42:47.450Z,5.60
2022-10-06T19:45:16.054Z,5.27
2022-10-06T19:47:44.822Z,4.70
2022-10-06T19:50:12.987Z,4.20
2022-10-06T19:52:41.319Z,3.93
2022-10-06T19:55:08.671Z,4.10
2022-10-06T19:57:35.982Z,4.27
2022-10-06T20:00:03.409Z,3.57
2022-10-06T20:02:30.587Z,3.60
2022-10-06T20:04:57.959Z,3.73
2022-10-06T20:07:27.672Z,3.70
2022-10-06T20:09:55.251Z,3.90
2022-10-06T20:12:25.400Z,3.27
2022-10-06T20:14:53.674Z,3.33
2022-10-06T20:17:21.391Z,3.87
2022-10-06T20:19:48.827Z,3.10
2022-10-06T20:22:16.801Z,3.90
2022-10-06T20:24:44.188Z,3.30
2022-10-06T20:27:11.350Z,3.27
2022-10-06T20:29:38.574Z,3.10
2022-10-06T20:32:05.791Z,2.70
2022-10-06T20:34:33.401Z,2.70
2022-10-06T20:37:04.946Z,2.73
2022-10-06T20:39:51.775Z,3.37
2022-10-06T20:42:19.848Z,2.63
2022-10-06T20:44:47.153Z,2.83
2022-10-06T20:47:14.438Z,2.85
2022-10-06T20:49:44.557Z,3.07
2022-10-06T20:52:14.679Z,2.67
2022-10-06T20:54:41.836Z,2.57
2022-10-06T20:57:09.549Z,2.93
2022-10-06T20:59:37.370Z,2.80
2022-10-06T21:02:05.554Z,2.47
2022-10-06T21:04:32.773Z,3.30
2022-10-06T21:06:59.817Z,2.50
2022-10-06T21:09:28.701Z,2.47
2022-10-06T21:11:57.658Z,2.83
2022-10-06T21:14:25.006Z,2.60
2022-10-06T21:16:52.449Z,2.40
2022-10-06T21:19:19.741Z,2.30
2022-10-06T21:21:53.374Z,2.47
2022-10-06T21:24:21.114Z,2.50
2022-10-06T21:26:48.873Z,2.57
2022-10-06T21:29:16.354Z,2.37
2022-10-06T21:31:44.996Z,2.13
2022-10-06T21:34:14.508Z,2.47
2022-10-06T21:36:43.612Z,2.20
2022-10-06T21:39:11.586Z,2.80
2022-10-06T21:41:39.764Z,2.10
2022-10-06T21:44:11.176Z,2.60
2022-10-06T21:46:57.515Z,3.00
2022-10-06T21:49:25.703Z,3.17
2022-10-06T21:51:55.286Z,2.97
2022-10-06T21:54:23.575Z,3.00
2022-10-06T21:56:51.209Z,2.70
2022-10-06T21:59:18.232Z,2.80
2022-10-06T22:01:46.692Z,2.93
2022-10-06T22:04:15.073Z,2.77
2022-10-06T22:06:43.841Z,2.80
2022-10-06T22:09:15.606Z,3.00
2022-10-06T22:11:42.830Z,3.10
2022-10-06T22:14:13.213Z,2.93
2022-10-06T22:16:40.176Z,3.00
2022-10-06T22:19:09.740Z,2.60
2022-10-06T22:21:39.431Z,2.80
2022-10-06T22:24:19.045Z,2.40
2022-10-06T22:26:46.071Z,2.40
2022-10-06T22:29:15.413Z,2.43
2022-10-06T22:31:44.876Z,2.33
2022-10-06T22:34:14.328Z,2.67
2022-10-06T22:36:41.553Z,1.80
2022-10-06T22:39:08.514Z,2.37
2022-10-06T22:41:35.550Z,2.30
2022-10-06T22:44:02.765Z,2.30
2022-10-06T22:46:32.337Z,2.57
2022-10-06T22:48:59.622Z,2.10
2022-10-06T22:51:26.824Z,2.10
2022-10-06T22:53:57.954Z,1.90
2022-10-06T22:56:26.532Z,2.00
2022-10-06T22:58:53.619Z,2.30
2022-10-06T23:01:20.982Z,2.70
2022-10-06T23:03:48.062Z,2.50
2022-10-06T23:06:17.332Z,2.17
2022-10-06T23:08:44.845Z,2.13
2022-10-06T23:11:14.452Z,2.40
2022-10-06T23:13:43.323Z,2.60
2022-10-06T23:16:12.629Z,2.27
2022-10-06T23:18:41.248Z,2.30
2022-10-06T23:21:21.807Z,2.50
2022-10-06T23:23:51.971Z,2.37
2022-10-06T23:26:20.090Z,1.90
2022-10-06T23:28:58.317Z,2.47
2022-10-06T23:31:25.915Z,3.50
2022-10-06T23:33:53.599Z,3.00
2022-10-06T23:36:20.621Z,2.90
2022-10-06T23:38:47.975Z,3.27
2022-10-06T23:41:15.464Z,3.80
2022-10-06T23:43:42.433Z,2.90
2022-10-06T23:46:09.596Z,2.57
2022-10-06T23:48:36.650Z,2.53
2022-10-06T23:51:09.243Z,2.20
2022-10-06T23:53:36.504Z,1.80
2022-10-06T23:56:03.718Z,1.73
2022-10-06T23:58:30.742Z,2.20
